Accueil
METAR-TAF:

METAR-TAF

Aéroports :

Aéroport international de Toncontín

Tegucigalpa, Honduras

latitude: 14-03N, longitude: 087-13W, altitude: 994 m

Observation

Le bulletin a été fait il y a 6 minutes, à 16:00 UTC
Vent 6 kt de nord-est
Température 23°C
Humidité 65%
Pression 1023 hPa
Visibilité 10 km ou plus
Nuages épars à une hauteur de 2600 ft

METAR: MHTG 211600Z 05006KT 9999 SCT026 23/16 Q1023 A3021 NOSIG

Heure: 10:06 (16:06 UTC)

Prévision

Le bulletin a été fait il y a 6 heures et 26 minutes, à 09:40 UTC
Prévision valable du 21 à 12 UTC au 22 à 12 UTC
Vent 6 kt de nord/nord-est
Visibilité 10 km ou plus
Nuages fragmentés à une hauteur de 2600 ft
Evoluant progressivement
du 21 à 15 UTC au 21 à 16 UTC
Nuages épars à une hauteur de 3000 ft

TAF: MHTG 210940Z 2112/2212 02006KT 9999 BKN026 TX26/2121Z TN16/2212Z BECMG 2115/2116 SCT030

Observations et prévisions météorologiques de plus de 4000 aéroports (messages METAR et TAF).

Les stations disponibles sont représentées par des disques jaunes et rouges sur la carte.

Passer la souris dessus pour voir le nom de la station.

Cliquer dessus pour voir les observations et prévisions météorologiques.

Pour changer de carte: cliquez sur les boutons verts avec une croix noire pour zoomer, sur le bouton vert avec un tiret pour effectuer un zoom arrière, ou sur les flèches vertes pour les cartes adjacentes.


METAR-TAF: